createdAt,value
2023-09-15T00:00:12.927Z,97472.97
2023-09-15T00:02:15.819Z,97472.22
2023-09-15T00:04:19.006Z,97480.31
2023-09-15T00:06:21.897Z,97481.47
2023-09-15T00:08:24.620Z,97482.63
2023-09-15T00:10:28.703Z,97479.22
2023-09-15T00:12:31.610Z,97478.47
2023-09-15T00:14:35.615Z,97479.44
2023-09-15T00:16:39.297Z,97481.13
2023-09-15T00:18:43.521Z,97476.03
2023-09-15T00:20:46.574Z,97477.16
2023-09-15T00:22:50.946Z,97478.03
2023-09-15T00:24:53.701Z,97474.44
2023-09-15T00:26:57.665Z,97474.44
2023-09-15T00:29:01.083Z,97469.06
2023-09-15T00:31:03.873Z,97470.97
2023-09-15T00:33:06.690Z,97459.56
2023-09-15T00:35:08.617Z,97460.44
2023-09-15T00:37:11.385Z,97457.69
2023-09-15T00:39:14.124Z,97462.00
2023-09-15T00:41:16.910Z,97462.09
2023-09-15T00:43:21.050Z,97455.16
2023-09-15T00:45:24.198Z,97465.78
2023-09-15T00:47:26.874Z,97458.91
2023-09-15T00:49:29.552Z,97453.00
2023-09-15T00:51:31.844Z,97450.34
2023-09-15T00:53:36.127Z,97448.56
2023-09-15T00:55:39.807Z,97452.91
2023-09-15T00:57:42.911Z,97447.63
2023-09-15T00:59:47.078Z,97445.94
2023-09-15T01:01:49.970Z,97448.75
2023-09-15T01:03:54.127Z,97447.06
2023-09-15T01:05:59.842Z,97444.44
2023-09-15T01:08:03.740Z,97440.19
2023-09-15T01:10:07.404Z,97439.38
2023-09-15T01:12:10.276Z,97439.47
2023-09-15T01:14:13.486Z,97431.63
2023-09-15T01:16:24.847Z,97441.25
2023-09-15T01:18:32.457Z,97434.19
2023-09-15T01:21:10.125Z,97436.91
2023-09-15T01:23:40.004Z,97433.00
2023-09-15T01:26:05.751Z,97432.34
2023-09-15T01:28:29.445Z,97430.63
2023-09-15T01:30:34.415Z,97431.69
2023-09-15T01:32:38.119Z,97423.13
2023-09-15T01:34:47.495Z,97431.28
2023-09-15T01:36:52.229Z,97431.28
2023-09-15T01:38:54.927Z,97432.25
2023-09-15T01:40:57.620Z,97437.53
2023-09-15T01:43:00.369Z,97434.34
2023-09-15T01:45:03.163Z,97438.09
2023-09-15T01:47:10.195Z,97434.09
2023-09-15T01:49:14.093Z,97436.19
2023-09-15T01:51:17.072Z,97436.19
2023-09-15T01:53:21.305Z,97435.31
2023-09-15T01:55:24.832Z,97442.41
2023-09-15T01:57:27.596Z,97440.69
2023-09-15T01:59:30.623Z,97433.75
2023-09-15T02:01:33.548Z,97438.06
2023-09-15T02:03:37.678Z,97434.59
2023-09-15T02:05:40.602Z,97429.59
2023-09-15T02:07:42.337Z,97428.00
2023-09-15T02:09:45.836Z,97432.44
2023-09-15T02:11:48.527Z,97431.66
2023-09-15T02:13:50.468Z,97436.47
2023-09-15T02:15:54.122Z,97436.75
2023-09-15T02:18:00.285Z,97438.63
2023-09-15T02:20:12.977Z,97436.09
2023-09-15T02:22:15.816Z,97431.75
2023-09-15T02:24:18.516Z,97435.25
2023-09-15T02:26:22.273Z,97432.50
2023-09-15T02:28:24.980Z,97431.50
2023-09-15T02:30:27.692Z,97425.28
2023-09-15T02:32:30.361Z,97435.91
2023-09-15T02:34:33.390Z,97431.50
2023-09-15T02:36:37.440Z,97430.72
2023-09-15T02:38:39.172Z,97430.06
2023-09-15T02:40:42.030Z,97434.47
2023-09-15T02:42:44.883Z,97433.06
2023-09-15T02:44:47.727Z,97432.59
2023-09-15T02:46:50.478Z,97443.22
2023-09-15T02:48:54.067Z,97435.41
2023-09-15T02:50:58.121Z,97437.19
2023-09-15T02:53:03.068Z,97427.59
2023-09-15T02:55:06.632Z,97432.97
2023-09-15T02:57:08.362Z,97426.66
2023-09-15T02:59:11.610Z,97432.69
2023-09-15T03:01:15.543Z,97432.59
2023-09-15T03:03:25.839Z,97427.41
2023-09-15T03:05:28.802Z,97431.81
2023-09-15T03:07:32.978Z,97430.16
2023-09-15T03:09:37.006Z,97426.56
2023-09-15T03:11:39.626Z,97426.66
2023-09-15T03:13:42.504Z,97430.16
2023-09-15T03:15:45.515Z,97428.44
2023-09-15T03:17:48.369Z,97426.84
2023-09-15T03:19:51.135Z,97425.06
2023-09-15T03:21:55.048Z,97426.00
2023-09-15T03:23:57.760Z,97419.81
2023-09-15T03:26:02.887Z,97426.09
2023-09-15T03:28:04.848Z,97424.41
2023-09-15T03:30:09.133Z,97420.91
2023-09-15T03:32:11.784Z,97413.97
2023-09-15T03:34:14.513Z,97412.16
2023-09-15T03:36:17.803Z,97406.91
2023-09-15T03:38:20.499Z,97411.34
2023-09-15T03:40:23.417Z,97407.84
2023-09-15T03:42:27.519Z,97399.97
2023-09-15T03:44:30.202Z,97402.59
2023-09-15T03:46:33.650Z,97402.84
2023-09-15T03:48:36.493Z,97414.31
2023-09-15T03:50:39.167Z,97408.31
2023-09-15T03:52:42.148Z,97410.16
2023-09-15T03:54:44.923Z,97408.50
2023-09-15T03:56:47.626Z,97400.78
2023-09-15T03:58:52.599Z,97408.78
2023-09-15T04:00:55.384Z,97407.91
2023-09-15T04:02:57.131Z,97409.03
2023-09-15T04:04:59.837Z,97406.50
2023-09-15T04:07:02.551Z,97401.50
2023-09-15T04:09:08.283Z,97406.88
2023-09-15T04:11:11.073Z,97406.00
2023-09-15T04:13:15.678Z,97406.94
2023-09-15T04:15:20.010Z,97410.59
2023-09-15T04:17:22.679Z,97404.50
2023-09-15T04:19:25.431Z,97402.81
2023-09-15T04:21:28.154Z,97402.03
2023-09-15T04:23:31.203Z,97396.88
2023-09-15T04:25:32.870Z,97398.66
2023-09-15T04:27:35.721Z,97400.38
2023-09-15T04:29:51.589Z,97396.78
2023-09-15T04:31:55.669Z,97394.25
2023-09-15T04:33:58.388Z,97396.97
2023-09-15T04:36:01.099Z,97396.22
2023-09-15T04:38:03.986Z,97384.84
2023-09-15T04:40:09.056Z,97391.97
2023-09-15T04:42:13.231Z,97391.13
2023-09-15T04:44:15.915Z,97386.78
2023-09-15T04:46:20.062Z,97388.66
2023-09-15T04:48:24.230Z,97391.53
2023-09-15T04:50:26.883Z,97397.81
2023-09-15T04:52:29.610Z,97403.25
2023-09-15T04:54:32.327Z,97406.16
2023-09-15T04:56:34.972Z,97397.50
2023-09-15T04:58:37.624Z,97404.53
2023-09-15T05:00:40.331Z,97403.72
2023-09-15T05:02:46.195Z,97400.31
2023-09-15T05:04:50.862Z,97397.69
2023-09-15T05:06:53.673Z,97399.56
2023-09-15T05:08:58.070Z,97403.03
2023-09-15T05:11:00.811Z,97403.94
2023-09-15T05:13:06.397Z,97405.00
2023-09-15T05:15:10.166Z,97404.03
2023-09-15T05:17:12.861Z,97398.78
2023-09-15T05:19:15.557Z,97397.94
2023-09-15T05:21:19.595Z,97405.81
2023-09-15T05:23:22.287Z,97399.63
2023-09-15T05:25:25.202Z,97406.66
2023-09-15T05:27:27.867Z,97406.50
2023-09-15T05:29:30.738Z,97400.41
2023-09-15T05:31:33.481Z,97409.03
2023-09-15T05:33:36.326Z,97403.88
2023-09-15T05:35:39.018Z,97413.38
2023-09-15T05:37:43.252Z,97411.50
2023-09-15T05:39:45.941Z,97414.91
2023-09-15T05:41:48.672Z,97419.22
2023-09-15T05:43:51.443Z,97423.53
2023-09-15T05:45:54.275Z,97421.66
2023-09-15T05:47:57.024Z,97417.25
2023-09-15T05:50:02.028Z,97420.66
2023-09-15T05:52:05.063Z,97425.81
2023-09-15T05:54:09.510Z,97430.22
2023-09-15T05:56:12.391Z,97435.47
2023-09-15T05:58:15.441Z,97434.72
2023-09-15T06:00:17.270Z,97435.56
2023-09-15T06:02:21.377Z,97436.34
2023-09-15T06:04:24.302Z,97440.50
2023-09-15T06:06:27.134Z,97436.09
2023-09-15T06:08:30.945Z,97436.84
2023-09-15T06:10:37.096Z,97439.41
2023-09-15T06:12:39.737Z,97435.94
2023-09-15T06:14:42.396Z,97443.72
2023-09-15T06:16:45.103Z,97442.78
2023-09-15T06:18:47.133Z,97447.97
2023-09-15T06:20:50.141Z,97433.88
2023-09-15T06:22:52.838Z,97433.88
2023-09-15T06:24:55.546Z,97434.72
2023-09-15T06:26:59.592Z,97433.78
2023-09-15T06:29:02.582Z,97439.63
2023-09-15T06:31:05.305Z,97438.59
2023-09-15T06:33:08.195Z,97439.34
2023-09-15T06:35:14.115Z,97438.50
2023-09-15T06:37:16.908Z,97437.59
2023-09-15T06:39:19.819Z,97435.03
2023-09-15T06:41:22.852Z,97429.22
2023-09-15T06:43:25.992Z,97432.25
2023-09-15T06:45:28.738Z,97424.38
2023-09-15T06:47:31.512Z,97427.97
2023-09-15T06:49:34.292Z,97427.00
2023-09-15T06:51:36.950Z,97421.56
2023-09-15T06:53:39.595Z,97419.69
2023-09-15T06:55:42.304Z,97417.72
2023-09-15T06:57:43.968Z,97422.81
2023-09-15T06:59:48.069Z,97426.09
2023-09-15T07:01:50.788Z,97424.34
2023-09-15T07:03:53.514Z,97410.91
2023-09-15T07:05:56.264Z,97426.53
2023-09-15T07:07:58.932Z,97417.50
2023-09-15T07:10:01.571Z,97419.97
2023-09-15T07:12:05.451Z,97425.03
2023-09-15T07:14:08.170Z,97421.38
2023-09-15T07:16:12.272Z,97422.97
2023-09-15T07:18:15.301Z,97415.75
2023-09-15T07:20:17.101Z,97414.72
2023-09-15T07:22:19.848Z,97421.41
2023-09-15T07:24:22.724Z,97416.03
2023-09-15T07:26:27.721Z,97412.47
2023-09-15T07:28:30.462Z,97407.31
2023-09-15T07:30:33.187Z,97409.09
2023-09-15T07:32:37.202Z,97409.84
2023-09-15T07:34:39.853Z,97407.78
2023-09-15T07:36:42.545Z,97405.16
2023-09-15T07:38:45.164Z,97405.34
2023-09-15T07:40:47.865Z,97412.19
2023-09-15T07:42:51.090Z,97406.81
2023-09-15T07:44:53.766Z,97411.19
2023-09-15T07:46:56.494Z,97410.13
2023-09-15T07:49:00.538Z,97409.09
2023-09-15T07:51:02.340Z,97412.31
2023-09-15T07:53:05.380Z,97408.81
2023-09-15T07:55:08.613Z,97413.88
2023-09-15T07:57:11.337Z,97402.34
2023-09-15T07:59:15.059Z,97406.44
2023-09-15T08:01:17.921Z,97405.34
2023-09-15T08:03:20.738Z,97402.59
2023-09-15T08:05:25.166Z,97405.78
2023-09-15T08:07:27.136Z,97401.19
2023-09-15T08:09:29.788Z,97401.84
2023-09-15T08:11:35.499Z,97401.56
2023-09-15T08:13:38.215Z,97396.88
2023-09-15T08:15:41.297Z,97392.44
2023-09-15T08:17:44.020Z,97395.00
2023-09-15T08:19:46.801Z,97388.59
2023-09-15T08:21:50.813Z,97392.72
2023-09-15T08:23:56.267Z,97389.91
2023-09-15T08:26:02.305Z,97401.84
2023-09-15T08:28:07.403Z,97394.59
2023-09-15T08:30:10.648Z,97387.78
2023-09-15T08:32:15.643Z,97393.25
2023-09-15T08:34:18.419Z,97393.16
2023-09-15T08:36:21.156Z,97398.22
2023-09-15T08:38:26.781Z,97392.56
2023-09-15T08:40:38.847Z,97393.28
2023-09-15T08:42:41.876Z,97385.31
2023-09-15T08:44:45.677Z,97393.00
2023-09-15T08:46:49.704Z,97389.41
2023-09-15T08:48:54.905Z,97377.84
2023-09-15T08:51:00.791Z,97376.66
2023-09-15T08:53:05.321Z,97373.84
2023-09-15T08:55:10.341Z,97374.59
2023-09-15T08:57:13.584Z,97374.50
2023-09-15T08:59:17.532Z,97369.97
2023-09-15T09:01:20.965Z,97370.69
2023-09-15T09:03:24.671Z,97369.56
2023-09-15T09:05:28.936Z,97374.63
2023-09-15T09:07:32.267Z,97370.94
2023-09-15T09:09:35.813Z,97366.41
2023-09-15T09:11:39.967Z,97366.22
2023-09-15T09:13:44.683Z,97364.31
2023-09-15T09:15:49.640Z,97366.31
2023-09-15T09:17:52.511Z,97359.25
2023-09-15T09:19:55.237Z,97360.84
2023-09-15T09:22:03.355Z,97358.03
2023-09-15T09:24:07.167Z,97349.78
2023-09-15T09:26:12.314Z,97358.34
2023-09-15T09:28:18.542Z,97359.84
2023-09-15T09:30:21.361Z,97356.13
2023-09-15T09:32:24.230Z,97348.97
2023-09-15T09:34:45.543Z,97344.97
2023-09-15T09:36:50.397Z,97346.44
2023-09-15T09:38:53.994Z,97348.13
2023-09-15T09:40:57.523Z,97347.94
2023-09-15T09:43:00.301Z,97344.22
2023-09-15T09:45:05.727Z,97343.28
2023-09-15T09:47:09.867Z,97341.25
2023-09-15T09:49:14.131Z,97334.81
2023-09-15T09:51:18.564Z,97336.41
2023-09-15T09:53:29.079Z,97330.06
2023-09-15T09:55:32.387Z,97321.91
2023-09-15T09:57:35.227Z,97320.88
2023-09-15T09:59:38.350Z,97314.53
2023-09-15T10:01:42.981Z,97314.09
2023-09-15T10:03:45.840Z,97318.31
2023-09-15T10:05:50.192Z,97315.44
2023-09-15T10:07:55.407Z,97317.75
2023-09-15T10:10:00.383Z,97308.78
2023-09-15T10:12:03.694Z,97309.81
2023-09-15T10:14:07.943Z,97306.94
2023-09-15T10:16:10.868Z,97307.78
2023-09-15T10:18:17.937Z,97302.16
2023-09-15T10:20:22.642Z,97302.81
2023-09-15T10:22:26.269Z,97307.88
2023-09-15T10:24:28.251Z,97300.47
2023-09-15T10:26:33.060Z,97297.38
2023-09-15T10:30:42.424Z,97301.47
2023-09-15T10:32:44.845Z,97289.59
2023-09-15T10:34:50.168Z,97302.72
2023-09-15T10:36:53.948Z,97299.63
2023-09-15T10:38:58.450Z,97292.19
2023-09-15T10:41:04.795Z,97288.47
2023-09-15T10:43:08.530Z,97282.09
2023-09-15T10:45:12.391Z,97288.84
2023-09-15T10:47:18.733Z,97279.00
2023-09-15T10:49:23.636Z,97281.41
2023-09-15T10:51:28.351Z,97284.69
2023-09-15T10:53:31.153Z,97284.56
2023-09-15T10:55:32.966Z,97282.41
2023-09-15T10:57:37.277Z,97281.34
2023-09-15T10:59:40.079Z,97272.00
2023-09-15T11:01:44.641Z,97273.53
2023-09-15T11:03:47.990Z,97271.75
2023-09-15T11:05:53.408Z,97267.78
2023-09-15T11:07:58.619Z,97259.50
2023-09-15T11:10:01.289Z,97259.38
2023-09-15T11:12:05.285Z,97259.38
2023-09-15T11:14:07.416Z,97256.59
2023-09-15T11:16:11.455Z,97256.38
2023-09-15T11:18:16.686Z,97253.28
2023-09-15T11:20:18.713Z,97253.16
2023-09-15T11:22:21.387Z,97252.91
2023-09-15T11:24:25.447Z,97246.44
2023-09-15T11:26:28.769Z,97251.97
2023-09-15T11:28:32.874Z,97249.09
2023-09-15T11:30:35.603Z,97248.59
2023-09-15T11:32:39.843Z,97238.72
2023-09-15T11:34:42.775Z,97234.88
2023-09-15T11:36:46.040Z,97237.75
2023-09-15T11:38:49.439Z,97233.06
2023-09-15T11:40:53.795Z,97231.03
2023-09-15T11:42:57.541Z,97232.56
2023-09-15T11:45:00.446Z,97232.34
2023-09-15T11:47:05.202Z,97226.41
2023-09-15T11:49:08.928Z,97227.84
2023-09-15T11:51:11.922Z,97223.41
2023-09-15T11:53:14.773Z,97215.06
2023-09-15T11:55:22.262Z,97212.16
2023-09-15T11:57:26.503Z,97210.38
2023-09-15T11:59:32.089Z,97203.50
2023-09-15T12:01:34.941Z,97215.66
2023-09-15T12:03:39.511Z,97206.75
2023-09-15T12:05:42.366Z,97198.94
2023-09-15T12:07:45.881Z,97206.50
2023-09-15T12:09:49.680Z,97202.25
2023-09-15T12:11:53.694Z,97196.56
2023-09-15T12:13:59.955Z,97189.91
2023-09-15T12:16:02.618Z,97191.66
2023-09-15T12:18:06.352Z,97182.53
2023-09-15T12:20:09.853Z,97174.56
2023-09-15T12:22:12.504Z,97172.13
2023-09-15T12:24:16.584Z,97174.59
2023-09-15T12:26:19.939Z,97170.72
2023-09-15T12:28:23.957Z,97172.78
2023-09-15T12:30:28.474Z,97162.47
2023-09-15T12:32:33.264Z,97164.69
2023-09-15T12:34:36.546Z,97160.22
2023-09-15T12:36:39.998Z,97165.06
2023-09-15T12:38:42.737Z,97164.84
2023-09-15T12:40:46.705Z,97159.38
2023-09-15T12:42:49.391Z,97162.63
2023-09-15T12:44:52.793Z,97155.38
2023-09-15T12:46:57.527Z,97152.03
2023-09-15T12:49:00.229Z,97148.69
2023-09-15T12:51:03.550Z,97150.94
2023-09-15T12:53:06.334Z,97142.84
2023-09-15T12:55:09.316Z,97137.94
2023-09-15T12:57:12.045Z,97138.22
2023-09-15T12:59:15.305Z,97140.47
2023-09-15T13:01:18.045Z,97136.97
2023-09-15T13:03:23.679Z,97131.34
2023-09-15T13:05:25.632Z,97132.19
2023-09-15T13:07:30.456Z,97129.28
2023-09-15T13:09:33.278Z,97131.50
2023-09-15T13:11:34.989Z,97130.16
2023-09-15T13:13:38.072Z,97126.44
2023-09-15T13:15:40.808Z,97129.78
2023-09-15T13:17:42.487Z,97119.44
2023-09-15T13:19:46.559Z,97119.88
2023-09-15T13:21:49.265Z,97115.16
2023-09-15T13:23:52.041Z,97111.84
2023-09-15T13:25:54.705Z,97111.47
2023-09-15T13:27:57.342Z,97107.38
2023-09-15T13:30:00.164Z,97105.06
2023-09-15T13:32:03.080Z,97103.00
2023-09-15T13:34:05.837Z,97107.00
2023-09-15T13:36:10.634Z,97099.84
2023-09-15T13:38:13.410Z,97108.03
2023-09-15T13:40:16.140Z,97102.03
2023-09-15T13:42:20.368Z,97103.88
2023-09-15T13:44:23.164Z,97103.72
2023-09-15T13:46:25.874Z,97101.69
2023-09-15T13:48:28.661Z,97099.53
2023-09-15T13:50:30.943Z,97098.53
2023-09-15T13:52:35.666Z,97100.88
2023-09-15T13:54:38.690Z,97098.34
2023-09-15T13:56:41.462Z,97104.53
2023-09-15T13:58:44.177Z,97109.09
2023-09-15T14:00:57.964Z,97102.69
2023-09-15T14:03:00.968Z,97109.91
2023-09-15T14:05:05.530Z,97116.06
2023-09-15T14:07:08.409Z,97111.41
2023-09-15T14:09:13.574Z,97107.72
2023-09-15T14:11:16.540Z,97110.06
2023-09-15T14:13:20.649Z,97109.59
2023-09-15T14:15:23.591Z,97098.34
2023-09-15T14:17:27.185Z,97101.53
2023-09-15T14:19:29.940Z,97102.31
2023-09-15T14:21:35.196Z,97096.47
2023-09-15T14:23:38.055Z,97100.84
2023-09-15T14:25:42.049Z,97101.00
2023-09-15T14:27:44.787Z,97085.28
2023-09-15T14:29:47.465Z,97095.34
2023-09-15T14:31:50.246Z,97086.00
2023-09-15T14:33:52.901Z,97090.50
2023-09-15T14:35:55.703Z,97094.50
2023-09-15T14:37:58.363Z,97093.38
2023-09-15T14:40:01.849Z,97093.00
2023-09-15T14:42:06.341Z,97085.16
2023-09-15T14:44:10.377Z,97097.34
2023-09-15T14:46:13.776Z,97095.31
2023-09-15T14:48:17.486Z,97089.81
2023-09-15T14:50:20.295Z,97098.16
2023-09-15T14:52:22.936Z,97091.50
2023-09-15T14:54:26.216Z,97098.69
2023-09-15T14:56:29.132Z,97092.66
2023-09-15T14:58:33.360Z,97094.34
2023-09-15T15:00:36.105Z,97092.69
2023-09-15T15:02:38.925Z,97095.31
2023-09-15T15:04:42.216Z,97092.84
2023-09-15T15:06:45.475Z,97088.84
2023-09-15T15:08:48.696Z,97084.63
2023-09-15T15:10:51.465Z,97083.63
2023-09-15T15:12:55.739Z,97082.94
2023-09-15T15:14:59.795Z,97085.28
2023-09-15T15:17:02.561Z,97083.47
2023-09-15T15:19:06.814Z,97083.97
2023-09-15T15:21:10.056Z,97077.09
2023-09-15T15:23:12.896Z,97081.47
2023-09-15T15:25:15.888Z,97079.94
2023-09-15T15:27:20.360Z,97083.28
2023-09-15T15:29:23.062Z,97075.91
2023-09-15T15:31:26.149Z,97084.63
2023-09-15T15:33:29.630Z,97083.25
2023-09-15T15:35:33.614Z,97080.59
2023-09-15T15:37:36.647Z,97086.75
2023-09-15T15:39:39.317Z,97080.50
2023-09-15T15:41:42.024Z,97083.69
2023-09-15T15:43:44.846Z,97091.19
2023-09-15T15:45:56.438Z,97098.53
2023-09-15T15:48:02.027Z,97093.47
2023-09-15T15:50:06.906Z,97094.47
2023-09-15T15:52:08.605Z,97090.91
2023-09-15T15:54:11.310Z,97088.25
2023-09-15T15:56:14.121Z,97088.16
2023-09-15T15:58:19.151Z,97089.88
2023-09-15T16:00:21.947Z,97091.00
2023-09-15T16:02:24.726Z,97090.50
2023-09-15T16:04:28.829Z,97092.13
2023-09-15T16:06:31.623Z,97098.31
2023-09-15T16:08:34.405Z,97096.69
2023-09-15T16:10:37.692Z,97090.84
2023-09-15T16:12:40.472Z,97095.19
2023-09-15T16:14:45.964Z,97098.06
2023-09-15T16:16:48.690Z,97099.81
2023-09-15T16:18:51.539Z,97097.38
2023-09-15T16:20:55.857Z,97096.00
2023-09-15T16:22:58.911Z,97088.91
2023-09-15T16:25:01.880Z,97100.72
2023-09-15T16:27:04.961Z,97099.75
2023-09-15T16:29:07.607Z,97093.50
2023-09-15T16:31:10.424Z,97099.09
2023-09-15T16:33:14.944Z,97091.69
2023-09-15T16:35:17.905Z,97092.16
2023-09-15T16:37:22.008Z,97092.28
2023-09-15T16:39:27.230Z,97093.56
2023-09-15T16:41:31.354Z,97092.03
2023-09-15T16:43:36.851Z,97087.84
2023-09-15T16:45:39.532Z,97086.63
2023-09-15T16:47:42.406Z,97088.72
2023-09-15T16:49:45.388Z,97091.00
2023-09-15T16:51:48.094Z,97086.38
2023-09-15T16:53:52.143Z,97089.88
2023-09-15T16:55:54.747Z,97087.13
2023-09-15T16:57:57.607Z,97088.38
2023-09-15T17:00:01.100Z,97093.16
2023-09-15T17:02:04.490Z,97094.22
2023-09-15T17:04:09.464Z,97091.16
2023-09-15T17:06:12.383Z,97090.75
2023-09-15T17:08:14.135Z,97093.88
2023-09-15T17:10:18.171Z,97099.47
2023-09-15T17:12:21.300Z,97098.22
2023-09-15T17:14:24.219Z,97094.16
2023-09-15T17:16:27.005Z,97094.84
2023-09-15T17:18:30.533Z,97094.59
2023-09-15T17:20:33.191Z,97094.19
2023-09-15T17:22:36.986Z,97094.19
2023-09-15T17:24:41.484Z,97101.00
2023-09-15T17:26:46.736Z,97102.44
2023-09-15T17:28:49.816Z,97099.19
2023-09-15T17:30:52.832Z,97102.84
2023-09-15T17:32:55.599Z,97103.28
2023-09-15T17:34:58.312Z,97098.38
2023-09-15T17:37:00.971Z,97091.94
2023-09-15T17:39:04.760Z,97096.00
2023-09-15T17:41:07.810Z,97094.63
2023-09-15T17:43:11.794Z,97105.78
2023-09-15T17:45:15.326Z,97111.91
2023-09-15T17:47:17.992Z,97110.50
2023-09-15T17:49:21.125Z,97110.47
2023-09-15T17:51:24.130Z,97110.19
2023-09-15T17:53:26.800Z,97114.38
2023-09-15T17:55:29.517Z,97122.75
2023-09-15T17:57:31.392Z,97119.25
2023-09-15T17:59:36.200Z,97126.94
2023-09-15T18:01:38.936Z,97125.81
2023-09-15T18:03:45.620Z,97123.00
2023-09-15T18:05:48.376Z,97134.72
2023-09-15T18:07:51.675Z,97138.22
2023-09-15T18:09:54.169Z,97138.75
2023-09-15T18:11:57.044Z,97133.03
2023-09-15T18:14:00.195Z,97127.97
2023-09-15T18:16:04.309Z,97126.00
2023-09-15T18:18:07.951Z,97132.66
2023-09-15T18:20:10.800Z,97127.50
2023-09-15T18:22:13.463Z,97124.22
2023-09-15T18:24:16.204Z,97117.78
2023-09-15T18:26:18.960Z,97118.88
2023-09-15T18:30:25.088Z,97119.81
2023-09-15T18:32:29.477Z,97115.31
2023-09-15T18:34:32.763Z,97119.34
2023-09-15T18:36:35.966Z,97124.06
2023-09-15T18:38:38.852Z,97120.84
2023-09-15T18:40:41.695Z,97125.59
2023-09-15T18:42:44.342Z,97115.34
2023-09-15T18:44:47.315Z,97115.63
2023-09-15T18:46:50.337Z,97118.41
2023-09-15T18:48:55.363Z,97112.25
2023-09-15T18:50:58.172Z,97113.47
2023-09-15T18:53:01.104Z,97104.69
2023-09-15T18:55:04.456Z,97105.41
2023-09-15T18:57:09.835Z,97096.16
2023-09-15T18:59:13.754Z,97111.22
2023-09-15T19:01:16.859Z,97104.38
2023-09-15T19:03:21.891Z,97114.25
2023-09-15T19:05:25.691Z,97109.09
2023-09-15T19:07:28.422Z,97107.53
2023-09-15T19:09:31.348Z,97106.00
2023-09-15T19:11:34.017Z,97102.50
2023-09-15T19:13:43.213Z,97102.50
2023-09-15T19:15:46.312Z,97109.59
2023-09-15T19:17:48.234Z,97110.44
2023-09-15T19:19:50.953Z,97103.44
2023-09-15T19:21:55.068Z,97104.44
2023-09-15T19:23:58.107Z,97096.59
2023-09-15T19:26:02.415Z,97095.03
2023-09-15T19:28:06.955Z,97102.28
2023-09-15T19:30:10.862Z,97095.31
2023-09-15T19:32:13.533Z,97096.28
2023-09-15T19:34:16.235Z,97097.38
2023-09-15T19:36:19.024Z,97095.84
2023-09-15T19:38:23.122Z,97102.31
2023-09-15T19:40:25.823Z,97102.56
2023-09-15T19:42:29.667Z,97097.41
2023-09-15T19:44:33.250Z,97098.50
2023-09-15T19:46:37.133Z,97089.81
2023-09-15T19:48:40.373Z,97093.31
2023-09-15T19:50:43.130Z,97091.63
2023-09-15T19:52:45.849Z,97095.50
2023-09-15T19:54:50.721Z,97087.25
2023-09-15T19:56:54.601Z,97088.44
2023-09-15T19:58:57.311Z,97088.84
2023-09-15T20:01:00.106Z,97099.53
2023-09-15T20:03:04.658Z,97099.53
2023-09-15T20:05:07.912Z,97098.59
2023-09-15T20:07:10.580Z,97107.38
2023-09-15T20:09:12.264Z,97104.00
2023-09-15T20:11:16.498Z,97109.44
2023-09-15T20:13:21.159Z,97112.19
2023-09-15T20:15:23.142Z,97111.38
2023-09-15T20:17:28.065Z,97111.72
2023-09-15T20:19:31.246Z,97113.69
2023-09-15T20:21:34.018Z,97114.63
2023-09-15T20:23:36.765Z,97120.06
2023-09-15T20:25:39.694Z,97111.38
2023-09-15T20:27:46.130Z,97108.13
2023-09-15T20:29:48.893Z,97104.69
2023-09-15T20:31:51.636Z,97098.78
2023-09-15T20:33:54.328Z,97108.78
2023-09-15T20:35:58.034Z,97111.66
2023-09-15T20:38:00.782Z,97110.97
2023-09-15T20:40:03.652Z,97117.06
2023-09-15T20:42:06.826Z,97113.69
2023-09-15T20:44:10.841Z,97116.47
2023-09-15T20:46:13.490Z,97110.47
2023-09-15T20:48:16.258Z,97104.34
2023-09-15T20:50:18.991Z,97105.28
2023-09-15T20:52:20.675Z,97109.88
2023-09-15T20:54:23.322Z,97107.47
2023-09-15T20:56:26.013Z,97109.38
2023-09-15T20:58:27.656Z,97112.16
2023-09-15T21:00:31.782Z,97108.09
2023-09-15T21:02:35.998Z,97110.25
2023-09-15T21:04:38.749Z,97108.66
2023-09-15T21:06:42.649Z,97108.91
2023-09-15T21:08:45.520Z,97113.47
2023-09-15T21:10:49.792Z,97114.47
2023-09-15T21:12:53.071Z,97115.41
2023-09-15T21:14:56.096Z,97105.66
2023-09-15T21:17:00.199Z,97108.31
2023-09-15T21:19:02.938Z,97106.63
2023-09-15T21:21:05.655Z,97103.16
2023-09-15T21:23:07.732Z,97103.28
2023-09-15T21:25:10.750Z,97111.09
2023-09-15T21:27:13.518Z,97099.06
2023-09-15T21:29:16.262Z,97100.97
2023-09-15T21:31:19.017Z,97094.81
2023-09-15T21:33:23.273Z,97099.31
2023-09-15T21:35:25.954Z,97087.03
2023-09-15T21:37:28.581Z,97088.97
2023-09-15T21:39:31.283Z,97093.66
2023-09-15T21:41:34.030Z,97083.16
2023-09-15T21:43:37.666Z,97082.47
2023-09-15T21:45:40.311Z,97087.97
2023-09-15T21:47:42.949Z,97079.44
2023-09-15T21:49:46.078Z,97087.38
2023-09-15T21:51:48.817Z,97081.28
2023-09-15T21:53:51.459Z,97089.66
2023-09-15T21:55:55.168Z,97083.03
2023-09-15T21:57:57.985Z,97086.91
2023-09-15T22:00:00.642Z,97087.13
2023-09-15T22:02:03.292Z,97084.72
2023-09-15T22:04:06.341Z,97084.00
2023-09-15T22:06:09.567Z,97080.41
2023-09-15T22:08:12.222Z,97083.06
2023-09-15T22:10:15.088Z,97066.34
2023-09-15T22:12:17.759Z,97079.56
2023-09-15T22:14:20.680Z,97071.75
2023-09-15T22:16:23.411Z,97069.34
2023-09-15T22:18:26.111Z,97069.59
2023-09-15T22:20:28.835Z,97068.88
2023-09-15T22:22:32.836Z,97063.69
2023-09-15T22:24:35.573Z,97069.94
2023-09-15T22:26:38.283Z,97069.19
2023-09-15T22:28:41.873Z,97071.97
2023-09-15T22:30:44.610Z,97077.38
2023-09-15T22:32:48.084Z,97079.16
2023-09-15T22:34:50.797Z,97081.00
2023-09-15T22:36:53.493Z,97083.75
2023-09-15T22:38:57.645Z,97082.06
2023-09-15T22:41:16.415Z,97086.41
2023-09-15T22:43:21.630Z,97077.84
2023-09-15T22:45:27.644Z,97087.81
2023-09-15T22:47:31.002Z,97088.75
2023-09-15T22:49:33.732Z,97084.44
2023-09-15T22:51:36.436Z,97082.84
2023-09-15T22:53:39.154Z,97086.44
2023-09-15T22:55:44.312Z,97078.63
2023-09-15T22:57:46.975Z,97080.44
2023-09-15T22:59:50.150Z,97071.78
2023-09-15T23:01:52.849Z,97080.69
2023-09-15T23:03:55.585Z,97076.56
2023-09-15T23:05:58.429Z,97078.47
2023-09-15T23:08:00.137Z,97081.13
2023-09-15T23:10:02.880Z,97086.66
2023-09-15T23:12:10.850Z,97087.63
2023-09-15T23:14:13.588Z,97084.34
2023-09-15T23:16:16.911Z,97079.28
2023-09-15T23:18:19.843Z,97085.53
2023-09-15T23:20:22.629Z,97081.44
2023-09-15T23:22:25.080Z,97086.72
2023-09-15T23:24:27.997Z,97083.34
2023-09-15T23:26:30.707Z,97088.13
2023-09-15T23:28:34.711Z,97083.06
2023-09-15T23:30:37.416Z,97081.41
2023-09-15T23:32:40.349Z,97088.59
2023-09-15T23:34:43.463Z,97081.59
2023-09-15T23:36:47.850Z,97084.47
2023-09-15T23:38:50.758Z,97078.47
2023-09-15T23:40:53.552Z,97084.84
2023-09-15T23:42:56.350Z,97088.53
2023-09-15T23:45:00.385Z,97086.00
2023-09-15T23:47:03.108Z,97089.50
2023-09-15T23:49:05.442Z,97086.84
2023-09-15T23:51:11.193Z,97081.56
2023-09-15T23:53:13.896Z,97082.50
2023-09-15T23:55:16.688Z,97079.28
2023-09-15T23:57:20.900Z,97081.06
2023-09-15T23:59:24.353Z,97078.56
